Time;durP1;ratioP1;P1;durP2;ratioP2;P2;SDS_P1;SDS_P2;PMS_P1;PMS_P2;Temp;Humidity;BMP_temperature;BMP_pressure;BME280_temperature;BME280_humidity;BME280_pressure;Samples;Min_cycle;Max_cycle;Signal;HPM_P1;HPM_P2
2023/09/12 00:00:49;;;;;;;18.35;9.35;;;16.40;99.90;;;;;;5088281;28;20024;-71
2023/09/12 00:03:21;;;;;;;24.42;10.27;;;16.40;99.90;;;;;;5088334;28;20024;-71
2023/09/12 00:05:57;;;;;;;19.58;9.75;;;16.40;99.90;;;;;;5089691;28;20372;-71
2023/09/12 00:08:23;;;;;;;18.67;9.50;;;16.40;99.90;;;;;;5088006;28;20028;-71
2023/09/12 00:11:18;;;;;;;19.98;10.05;;;16.40;99.90;;;;;;5090149;28;20051;-71
2023/09/12 00:13:44;;;;;;;36.25;11.45;;;16.40;99.90;;;;;;5076546;28;20044;-71
2023/09/12 00:16:10;;;;;;;22.85;10.75;;;16.40;99.90;;;;;;5088093;28;20043;-71
2023/09/12 00:18:37;;;;;;;19.92;10.05;;;16.30;99.90;;;;;;5085632;28;20031;-71
2023/09/12 00:21:03;;;;;;;16.85;10.00;;;16.30;99.90;;;;;;5087711;28;20477;-71
2023/09/12 00:23:28;;;;;;;19.50;9.73;;;16.20;99.90;;;;;;5088691;28;20047;-71
2023/09/12 00:25:54;;;;;;;17.92;9.10;;;16.10;99.90;;;;;;5086556;28;20044;-71
2023/09/12 00:28:20;;;;;;;24.75;9.80;;;16.10;99.90;;;;;;5068335;28;20032;-71
2023/09/12 00:30:46;;;;;;;18.85;9.50;;;16.10;99.90;;;;;;5088394;28;20375;-71
2023/09/12 00:33:12;;;;;;;21.77;10.43;;;16.10;99.90;;;;;;5087019;28;20038;-71
2023/09/12 00:35:37;;;;;;;19.02;9.32;;;16.10;99.90;;;;;;5086229;28;20206;-71
2023/09/12 00:38:03;;;;;;;18.08;10.05;;;16.00;99.90;;;;;;5089016;28;20028;-71
2023/09/12 00:40:29;;;;;;;24.35;10.88;;;16.00;99.90;;;;;;5064923;28;20031;-71
2023/09/12 00:42:55;;;;;;;29.20;11.00;;;16.00;99.90;;;;;;5089282;28;20042;-71
2023/09/12 00:45:21;;;;;;;17.90;9.85;;;16.00;99.90;;;;;;5087520;28;20044;-71
2023/09/12 00:47:47;;;;;;;25.15;9.85;;;16.00;99.90;;;;;;5089005;28;20137;-70
2023/09/12 00:50:14;;;;;;;17.95;9.52;;;15.90;99.90;;;;;;5085835;28;20082;-71
2023/09/12 00:52:41;;;;;;;20.75;11.02;;;15.90;99.90;;;;;;5086908;28;20729;-71
2023/09/12 00:55:07;;;;;;;19.05;10.77;;;15.90;99.90;;;;;;5087656;28;20111;-71
2023/09/12 00:57:35;;;;;;;26.63;10.38;;;15.90;99.90;;;;;;5088000;28;20035;-70
2023/09/12 01:00:10;;;;;;;18.67;9.35;;;15.90;99.90;;;;;;5087428;28;20054;-71
2023/09/12 01:02:37;;;;;;;24.42;10.07;;;15.90;99.90;;;;;;5087413;28;20110;-70
2023/09/12 01:05:05;;;;;;;19.30;10.00;;;15.90;99.90;;;;;;5086057;28;20400;-70
2023/09/12 01:07:30;;;;;;;20.52;9.65;;;16.00;99.90;;;;;;5087544;28;20043;-70
2023/09/12 01:09:56;;;;;;;18.33;9.85;;;16.00;99.90;;;;;;5087535;28;20032;-70
2023/09/12 01:12:22;;;;;;;19.45;9.63;;;15.90;99.90;;;;;;5088258;28;20028;-71
2023/09/12 01:14:48;;;;;;;25.35;9.95;;;15.90;99.90;;;;;;5086691;28;20752;-71
2023/09/12 01:17:14;;;;;;;19.02;10.05;;;15.90;99.90;;;;;;5087275;28;20423;-71
2023/09/12 01:19:39;;;;;;;22.63;9.68;;;15.90;99.90;;;;;;5087964;28;20119;-70
2023/09/12 01:22:31;;;;;;;20.67;10.50;;;15.80;99.90;;;;;;5088158;28;20035;-70
2023/09/12 01:25:35;;;;;;;22.27;10.55;;;15.80;99.90;;;;;;5083217;28;20051;-70
2023/09/12 01:28:05;;;;;;;19.75;9.48;;;15.70;99.90;;;;;;5078660;28;20103;-70
2023/09/12 01:30:34;;;;;;;23.38;9.85;;;15.70;99.90;;;;;;5083692;28;20028;-70
2023/09/12 01:33:00;;;;;;;20.90;9.93;;;15.70;99.90;;;;;;5072614;28;20054;-72
2023/09/12 01:35:26;;;;;;;22.77;10.55;;;15.70;99.90;;;;;;5050247;28;20033;-72
2023/09/12 01:37:52;;;;;;;21.17;10.77;;;15.70;99.90;;;;;;5071085;28;20047;-70
2023/09/12 01:40:29;;;;;;;20.17;10.68;;;15.70;99.90;;;;;;5085380;28;20031;-70
2023/09/12 01:42:56;;;;;;;24.08;10.82;;;15.70;99.90;;;;;;5068678;28;20081;-71
2023/09/12 01:45:22;;;;;;;22.90;10.90;;;15.60;99.90;;;;;;5074824;28;20024;-71
2023/09/12 01:47:49;;;;;;;19.60;10.30;;;15.60;99.90;;;;;;5086553;28;20409;-71
2023/09/12 01:50:17;;;;;;;22.85;10.85;;;15.60;99.90;;;;;;5085775;28;20078;-71
2023/09/12 01:52:43;;;;;;;21.92;10.50;;;15.60;99.90;;;;;;5087873;28;20032;-71
2023/09/12 01:55:11;;;;;;;19.73;10.07;;;15.50;99.90;;;;;;5068164;28;20391;-70
2023/09/12 01:57:38;;;;;;;23.05;10.68;;;15.50;99.90;;;;;;5091929;28;20032;-71
2023/09/12 02:00:04;;;;;;;22.25;10.60;;;15.60;99.90;;;;;;5088970;28;20059;-71
2023/09/12 02:02:29;;;;;;;21.55;10.90;;;15.60;99.90;;;;;;5090942;28;20077;-71
2023/09/12 02:05:17;;;;;;;20.75;10.68;;;15.60;99.90;;;;;;5089458;28;20431;-71
2023/09/12 02:07:43;;;;;;;21.63;9.75;;;15.60;99.90;;;;;;5072171;28;20736;-71
2023/09/12 02:10:09;;;;;;;18.73;10.43;;;15.50;99.90;;;;;;5076670;28;20036;-72
2023/09/12 02:12:35;;;;;;;20.50;10.27;;;15.50;99.90;;;;;;5089843;28;20032;-72
2023/09/12 02:15:01;;;;;;;17.83;9.70;;;15.60;99.90;;;;;;5091875;28;20031;-71
2023/09/12 02:17:27;;;;;;;21.65;10.13;;;15.50;99.90;;;;;;5088500;28;20032;-71
2023/09/12 02:19:52;;;;;;;17.92;10.02;;;15.50;99.90;;;;;;5089983;28;20384;-71
2023/09/12 02:22:18;;;;;;;22.77;10.52;;;15.50;99.90;;;;;;5091369;28;20040;-71
2023/09/12 02:24:43;;;;;;;29.05;11.07;;;15.50;99.90;;;;;;5090811;28;20484;-71
2023/09/12 02:27:09;;;;;;;18.75;10.23;;;15.40;99.90;;;;;;5087460;28;20024;-72
2023/09/12 02:29:35;;;;;;;19.85;10.35;;;15.30;99.90;;;;;;5089705;28;20606;-71
2023/09/12 02:32:01;;;;;;;19.48;10.38;;;15.30;99.90;;;;;;5084147;28;20039;-71
2023/09/12 02:34:26;;;;;;;20.73;10.00;;;15.20;99.90;;;;;;5086815;28;20039;-71
2023/09/12 02:36:53;;;;;;;23.67;10.30;;;15.30;99.90;;;;;;5091455;28;20457;-71
2023/09/12 02:39:18;;;;;;;20.42;9.15;;;15.30;99.90;;;;;;5089658;28;20028;-71
2023/09/12 02:41:44;;;;;;;19.10;9.63;;;15.20;99.90;;;;;;5088654;28;20027;-71
2023/09/12 02:44:09;;;;;;;21.52;9.43;;;15.20;99.90;;;;;;5088741;28;20032;-71
2023/09/12 02:46:36;;;;;;;21.70;10.23;;;15.10;99.90;;;;;;5090272;28;20115;-71
2023/09/12 02:49:02;;;;;;;18.92;9.52;;;15.10;99.90;;;;;;5090905;28;20055;-71
2023/09/12 02:51:28;;;;;;;18.45;9.32;;;15.10;99.90;;;;;;5087416;28;20543;-71
2023/09/12 02:53:53;;;;;;;22.20;9.30;;;15.10;99.90;;;;;;5084690;28;20376;-71
2023/09/12 02:56:19;;;;;;;17.98;8.88;;;15.00;99.90;;;;;;5089298;28;20039;-71
2023/09/12 02:58:48;;;;;;;17.88;9.05;;;15.00;99.90;;;;;;5073349;28;20035;-71
2023/09/12 03:01:18;;;;;;;20.40;10.10;;;15.00;99.90;;;;;;5085969;28;20507;-72
2023/09/12 03:03:48;;;;;;;22.50;10.23;;;15.00;99.90;;;;;;5088824;28;20036;-70
2023/09/12 03:06:14;;;;;;;20.52;10.63;;;15.00;99.90;;;;;;5087210;28;20066;-71
2023/09/12 03:08:41;;;;;;;24.90;10.95;;;15.00;99.90;;;;;;5088162;28;20024;-71
2023/09/12 03:11:07;;;;;;;17.58;10.98;;;15.00;99.90;;;;;;5090014;28;20028;-72
2023/09/12 03:13:34;;;;;;;20.92;9.57;;;14.90;99.90;;;;;;5088256;28;20146;-71
2023/09/12 03:16:00;;;;;;;17.45;9.15;;;15.00;99.90;;;;;;5090650;28;20354;-71
2023/09/12 03:18:26;;;;;;;19.80;9.85;;;15.00;99.90;;;;;;5071135;28;20735;-71
2023/09/12 03:20:52;;;;;;;13.93;8.55;;;15.00;99.90;;;;;;5090934;28;20170;-72
2023/09/12 03:23:18;;;;;;;18.98;8.68;;;15.00;99.90;;;;;;5087422;28;20025;-71
2023/09/12 03:25:44;;;;;;;17.77;8.90;;;14.90;99.90;;;;;;5090466;28;20489;-71
2023/09/12 03:28:10;;;;;;;21.60;9.48;;;14.80;99.90;;;;;;5088983;28;20032;-71
2023/09/12 03:30:37;;;;;;;23.40;9.73;;;14.80;99.90;;;;;;5090866;28;20036;-71
2023/09/12 03:33:04;;;;;;;25.05;9.63;;;14.70;99.90;;;;;;5089933;28;20119;-71
2023/09/12 03:35:32;;;;;;;19.85;9.70;;;14.70;99.90;;;;;;5088015;28;20020;-71
2023/09/12 03:37:58;;;;;;;22.98;9.88;;;14.70;99.90;;;;;;5088440;28;20024;-71
2023/09/12 03:40:23;;;;;;;20.58;9.93;;;14.70;99.90;;;;;;5088131;28;20434;-71
2023/09/12 03:42:49;;;;;;;19.52;9.82;;;14.60;99.90;;;;;;5090510;28;20380;-71
2023/09/12 03:45:15;;;;;;;19.70;9.68;;;14.60;99.90;;;;;;5087706;28;20038;-72
2023/09/12 03:47:40;;;;;;;21.55;10.10;;;14.60;99.90;;;;;;5088170;28;20047;-71
2023/09/12 03:50:06;;;;;;;19.08;9.52;;;14.60;99.90;;;;;;5088397;28;20032;-72
2023/09/12 03:52:32;;;;;;;24.20;10.43;;;14.70;99.90;;;;;;5088781;28;20028;-71
2023/09/12 03:55:00;;;;;;;20.55;9.95;;;14.60;99.90;;;;;;5089387;28;20036;-71
2023/09/12 03:57:26;;;;;;;20.38;10.27;;;14.60;99.90;;;;;;5089347;28;20916;-71
2023/09/12 03:59:52;;;;;;;18.83;10.23;;;14.60;99.90;;;;;;5089148;28;20115;-71
2023/09/12 04:02:18;;;;;;;25.02;10.65;;;14.60;99.90;;;;;;5089258;28;20036;-71
2023/09/12 04:04:44;;;;;;;19.05;9.80;;;14.60;99.90;;;;;;5088125;28;20374;-71
2023/09/12 04:07:09;;;;;;;25.35;10.57;;;14.50;99.90;;;;;;5085678;28;20445;-72
2023/09/12 04:09:35;;;;;;;31.40;11.50;;;14.50;99.90;;;;;;5089682;28;20535;-71
2023/09/12 04:12:01;;;;;;;23.00;11.15;;;14.50;99.90;;;;;;5085731;28;20457;-71
2023/09/12 04:14:27;;;;;;;24.88;12.15;;;14.50;99.90;;;;;;5083892;28;20139;-71
2023/09/12 04:16:52;;;;;;;24.48;13.23;;;14.50;99.90;;;;;;5073740;28;20104;-72
2023/09/12 04:19:18;;;;;;;22.40;10.82;;;14.50;99.90;;;;;;5061905;28;20515;-72
2023/09/12 04:21:43;;;;;;;20.73;10.75;;;14.60;99.90;;;;;;5087487;28;20085;-71
2023/09/12 04:24:09;;;;;;;22.67;10.88;;;14.60;99.90;;;;;;5088321;28;20441;-72
2023/09/12 04:26:35;;;;;;;19.92;10.15;;;14.60;99.90;;;;;;5082275;28;20135;-71
2023/09/12 04:29:00;;;;;;;23.75;10.60;;;14.60;99.90;;;;;;5088327;28;20032;-71
2023/09/12 04:31:26;;;;;;;22.42;10.05;;;14.60;99.90;;;;;;5079547;28;20032;-71
2023/09/12 04:33:52;;;;;;;24.75;10.60;;;14.50;99.90;;;;;;5069365;28;20028;-72
2023/09/12 04:36:18;;;;;;;22.95;10.90;;;14.50;99.90;;;;;;5076958;28;20063;-72
2023/09/12 04:38:44;;;;;;;23.38;11.10;;;14.40;99.90;;;;;;5082138;28;20444;-71
2023/09/12 04:41:15;;;;;;;23.20;10.85;;;14.40;99.90;;;;;;5065455;28;20056;-72
2023/09/12 04:43:40;;;;;;;19.70;10.27;;;14.40;99.90;;;;;;5084375;28;20462;-71
2023/09/12 04:46:06;;;;;;;22.85;11.52;;;14.40;99.90;;;;;;5088511;28;20032;-71
2023/09/12 04:48:32;;;;;;;18.92;9.75;;;14.40;99.90;;;;;;5083909;28;20056;-71
2023/09/12 04:50:58;;;;;;;20.33;10.18;;;14.40;99.90;;;;;;5084106;28;20032;-71
2023/09/12 04:53:24;;;;;;;20.60;10.52;;;14.40;99.90;;;;;;5087392;28;20094;-70
2023/09/12 04:55:53;;;;;;;23.67;11.32;;;14.50;99.90;;;;;;5085532;28;20111;-69
2023/09/12 04:58:18;;;;;;;21.05;11.65;;;14.40;99.90;;;;;;5084119;28;20028;-71
2023/09/12 05:00:45;;;;;;;27.20;11.23;;;14.40;99.90;;;;;;5082953;28;20047;-71
2023/09/12 05:03:10;;;;;;;21.80;11.00;;;14.40;99.90;;;;;;5082082;28;20078;-70
2023/09/12 05:05:36;;;;;;;21.52;11.23;;;14.40;99.90;;;;;;5083239;28;20024;-71
2023/09/12 05:08:02;;;;;;;24.25;11.55;;;14.40;99.90;;;;;;5064287;28;20097;-70
2023/09/12 05:10:27;;;;;;;24.65;10.57;;;14.40;99.90;;;;;;5086417;28;20031;-70
2023/09/12 05:12:53;;;;;;;22.45;9.95;;;14.40;99.90;;;;;;5080997;28;20036;-70
2023/09/12 05:15:19;;;;;;;24.77;10.88;;;14.50;99.90;;;;;;5076035;28;20100;-70
2023/09/12 05:17:44;;;;;;;21.80;10.93;;;14.50;99.90;;;;;;5083496;28;20468;-69
2023/09/12 05:20:10;;;;;;;21.88;9.82;;;14.50;99.90;;;;;;5084831;28;20040;-69
2023/09/12 05:22:36;;;;;;;17.98;9.88;;;14.60;99.90;;;;;;5081212;28;20130;-68
2023/09/12 05:25:01;;;;;;;18.50;9.27;;;14.60;99.90;;;;;;5073276;28;20139;-69
2023/09/12 05:27:27;;;;;;;21.38;9.48;;;14.70;99.90;;;;;;5082330;28;20431;-69
2023/09/12 05:29:52;;;;;;;18.17;9.18;;;14.70;99.90;;;;;;5078944;28;20025;-69
2023/09/12 05:32:18;;;;;;;22.63;9.38;;;14.60;99.90;;;;;;5067631;28;20379;-70
2023/09/12 05:34:45;;;;;;;22.60;9.52;;;14.70;99.90;;;;;;5081503;28;20075;-71
2023/09/12 05:37:11;;;;;;;19.40;9.63;;;14.80;99.90;;;;;;5087012;28;20047;-70
2023/09/12 05:39:36;;;;;;;20.65;9.57;;;14.80;99.90;;;;;;5088911;28;20062;-70
2023/09/12 05:42:02;;;;;;;17.92;9.35;;;14.90;99.90;;;;;;5095695;28;20553;-70
2023/09/12 05:44:28;;;;;;;18.42;10.43;;;15.00;99.90;;;;;;5087136;28;20039;-70
2023/09/12 05:46:53;;;;;;;18.02;9.57;;;15.10;99.90;;;;;;5087170;28;20114;-70
2023/09/12 05:49:19;;;;;;;18.15;9.10;;;14.90;99.90;;;;;;5086883;28;20119;-70
2023/09/12 05:51:45;;;;;;;23.58;9.40;;;14.90;99.90;;;;;;5086536;28;20124;-70
2023/09/12 05:54:13;;;;;;;23.50;9.40;;;14.90;99.90;;;;;;5087672;28;20032;-70
2023/09/12 05:56:39;;;;;;;24.67;9.70;;;14.80;99.90;;;;;;5087770;28;20051;-70
2023/09/12 05:59:06;;;;;;;18.35;8.60;;;14.80;99.90;;;;;;5088385;28;20031;-70
2023/09/12 06:01:31;;;;;;;18.60;9.18;;;14.90;99.90;;;;;;5084670;28;20081;-70
2023/09/12 06:03:57;;;;;;;20.60;9.60;;;15.00;99.90;;;;;;5083350;28;20044;-70
2023/09/12 06:06:23;;;;;;;20.05;9.18;;;15.10;99.90;;;;;;5087806;28;20032;-70
2023/09/12 06:08:48;;;;;;;17.58;9.50;;;15.10;99.90;;;;;;5070380;28;20107;-69
2023/09/12 06:11:14;;;;;;;26.98;9.55;;;15.20;99.90;;;;;;5088103;28;20028;-70
2023/09/12 06:13:39;;;;;;;17.55;10.27;;;15.30;99.90;;;;;;5086820;28;20480;-71
2023/09/12 06:16:06;;;;;;;21.33;9.30;;;15.30;99.90;;;;;;5087242;28;20540;-70
2023/09/12 06:18:35;;;;;;;19.15;9.48;;;15.40;99.90;;;;;;5087516;28;20039;-70
2023/09/12 06:21:06;;;;;;;22.10;9.85;;;15.40;99.90;;;;;;5088230;28;20040;-69
2023/09/12 06:23:32;;;;;;;22.90;9.95;;;15.50;99.90;;;;;;5087457;28;20028;-70
2023/09/12 06:25:57;;;;;;;18.83;10.18;;;15.60;99.90;;;;;;5086012;28;20044;-70
2023/09/12 06:28:28;;;;;;;19.30;10.00;;;15.60;99.90;;;;;;5087511;28;20031;-71
2023/09/12 06:30:54;;;;;;;18.63;9.70;;;15.70;99.90;;;;;;5087820;28;20036;-71
2023/09/12 06:33:20;;;;;;;20.05;10.32;;;15.70;99.90;;;;;;5084613;28;20274;-71
2023/09/12 06:35:54;;;;;;;22.65;10.93;;;15.90;99.90;;;;;;5080473;28;20111;-70
2023/09/12 06:38:22;;;;;;;27.77;10.82;;;15.90;99.90;;;;;;5071279;28;20024;-71
2023/09/12 06:40:47;;;;;;;24.55;10.93;;;16.00;99.90;;;;;;5087235;28;20031;-71
2023/09/12 06:43:14;;;;;;;21.98;10.48;;;16.20;99.90;;;;;;5086729;28;20047;-70
2023/09/12 06:45:42;;;;;;;25.35;11.00;;;16.50;99.90;;;;;;5088280;28;20028;-70
2023/09/12 06:48:08;;;;;;;23.75;11.00;;;16.60;99.90;;;;;;5089530;28;20576;-70
2023/09/12 06:50:34;;;;;;;21.73;10.88;;;16.80;99.90;;;;;;5090641;28;20032;-70
2023/09/12 06:52:59;;;;;;;21.02;10.75;;;17.10;99.90;;;;;;5089558;28;20656;-71
2023/09/12 06:55:25;;;;;;;21.02;11.07;;;17.30;99.90;;;;;;5087797;28;20032;-70
2023/09/12 06:57:51;;;;;;;18.00;10.40;;;17.60;99.90;;;;;;5091320;28;20060;-70
2023/09/12 07:00:16;;;;;;;23.83;9.75;;;17.60;99.90;;;;;;5088859;28;20036;-70
2023/09/12 07:02:42;;;;;;;27.10;10.57;;;17.60;99.90;;;;;;5088743;28;20024;-70
2023/09/12 07:05:08;;;;;;;26.38;10.02;;;17.60;99.90;;;;;;5091096;28;20463;-70
2023/09/12 07:07:34;;;;;;;17.65;9.95;;;17.60;99.90;;;;;;5089127;28;20102;-70
2023/09/12 07:10:00;;;;;;;22.30;10.15;;;17.60;99.90;;;;;;5090757;28;20028;-71
2023/09/12 07:12:28;;;;;;;20.60;10.60;;;17.50;99.90;;;;;;5088261;28;20032;-71
2023/09/12 07:14:55;;;;;;;21.10;10.57;;;17.60;99.90;;;;;;5090915;28;20111;-71
2023/09/12 07:17:21;;;;;;;20.88;10.20;;;17.60;99.90;;;;;;5087238;28;20043;-71
2023/09/12 07:19:47;;;;;;;25.48;10.38;;;17.60;99.90;;;;;;5083818;28;20033;-69
2023/09/12 07:22:13;;;;;;;20.48;9.90;;;17.70;99.90;;;;;;5089583;28;20350;-71
2023/09/12 07:24:38;;;;;;;23.35;10.27;;;17.90;99.90;;;;;;5087296;28;20107;-69
2023/09/12 07:27:04;;;;;;;19.77;10.80;;;18.00;99.90;;;;;;5085047;28;20035;-71
2023/09/12 07:29:30;;;;;;;24.48;11.15;;;18.20;99.90;;;;;;5085582;28;20135;-70
2023/09/12 07:31:56;;;;;;;21.25;10.02;;;18.40;99.90;;;;;;5070576;28;20064;-71
2023/09/12 07:34:21;;;;;;;22.13;10.35;;;18.70;99.90;;;;;;5069986;28;20039;-72
2023/09/12 07:36:47;;;;;;;26.45;10.70;;;19.00;99.90;;;;;;5071657;28;20138;-71
2023/09/12 07:39:13;;;;;;;19.42;10.43;;;19.30;99.90;;;;;;5090077;28;20532;-70
2023/09/12 07:41:38;;;;;;;22.50;10.82;;;19.40;99.90;;;;;;5089753;28;20032;-70
2023/09/12 07:44:04;;;;;;;20.42;9.88;;;19.50;99.90;;;;;;5090123;28;20115;-71
2023/09/12 07:46:30;;;;;;;28.50;10.52;;;19.60;99.90;;;;;;5087427;28;20047;-71
2023/09/12 07:48:58;;;;;;;20.95;10.30;;;19.80;99.90;;;;;;5090137;28;20174;-71
2023/09/12 07:51:24;;;;;;;23.95;9.80;;;20.00;99.90;;;;;;5089473;28;20107;-72
2023/09/12 07:53:49;;;;;;;18.35;10.18;;;20.20;99.90;;;;;;5089640;28;20034;-71
2023/09/12 07:56:15;;;;;;;22.85;9.98;;;20.30;99.90;;;;;;5088449;28;20036;-71
2023/09/12 07:58:41;;;;;;;19.35;9.40;;;20.50;99.90;;;;;;5089627;28;20079;-71
2023/09/12 08:01:10;;;;;;;20.08;9.77;;;20.80;99.90;;;;;;5090290;28;20066;-71
2023/09/12 08:03:38;;;;;;;18.02;9.75;;;21.00;99.90;;;;;;5085091;28;20094;-71
2023/09/12 08:06:04;;;;;;;25.77;9.75;;;21.30;99.90;;;;;;5088974;28;20028;-71
2023/09/12 08:08:30;;;;;;;22.98;10.10;;;21.50;99.90;;;;;;5088433;28;20376;-70
2023/09/12 08:10:57;;;;;;;20.08;9.73;;;21.80;99.90;;;;;;5090017;28;20043;-70
2023/09/12 08:13:25;;;;;;;16.98;9.38;;;21.90;99.90;;;;;;5089396;28;20028;-70
2023/09/12 08:15:51;;;;;;;19.17;9.75;;;22.10;99.90;;;;;;5088284;28;20028;-70
2023/09/12 08:18:16;;;;;;;25.63;10.40;;;22.10;99.90;;;;;;5086628;28;20153;-70
2023/09/12 08:20:43;;;;;;;21.45;9.68;;;22.30;99.90;;;;;;5082624;28;20020;-71
2023/09/12 08:23:09;;;;;;;27.23;9.98;;;22.40;99.90;;;;;;5087936;28;20044;-70
2023/09/12 08:25:34;;;;;;;38.33;11.32;;;22.60;99.90;;;;;;5088342;28;20115;-70
2023/09/12 08:28:00;;;;;;;18.85;9.80;;;22.90;99.90;;;;;;5082375;28;20040;-70
2023/09/12 08:30:29;;;;;;;18.35;9.57;;;23.10;99.90;;;;;;5088893;28;20032;-71
2023/09/12 08:32:55;;;;;;;18.10;10.07;;;23.30;99.90;;;;;;5089365;28;20541;-70
2023/09/12 08:35:20;;;;;;;19.33;9.10;;;23.50;99.90;;;;;;5089204;28;20464;-71
2023/09/12 08:37:46;;;;;;;19.63;10.27;;;23.80;99.90;;;;;;5085002;28;20024;-70
2023/09/12 08:40:12;;;;;;;23.52;10.80;;;24.00;99.90;;;;;;5088745;28;20106;-71
2023/09/12 08:42:41;;;;;;;25.75;9.80;;;24.10;99.90;;;;;;5088626;28;20031;-71
2023/09/12 08:45:18;;;;;;;18.95;10.20;;;24.20;99.90;;;;;;5088396;28;20075;-71
2023/09/12 08:47:45;;;;;;;21.00;11.68;;;24.40;99.90;;;;;;5088007;28;20070;-70
2023/09/12 08:50:13;;;;;;;22.13;11.23;;;24.50;99.90;;;;;;5087479;28;20039;-70
2023/09/12 08:52:41;;;;;;;22.50;11.68;;;24.60;99.90;;;;;;5068276;28;20087;-69
2023/09/12 08:55:07;;;;;;;24.13;10.68;;;24.80;99.90;;;;;;5068917;28;20028;-69
2023/09/12 08:57:35;;;;;;;26.38;11.05;;;24.90;99.90;;;;;;5068309;28;20036;-70
2023/09/12 09:00:06;;;;;;;20.98;11.35;;;25.00;99.90;;;;;;5074585;28;20485;-70
2023/09/12 09:02:33;;;;;;;22.70;11.63;;;25.20;99.90;;;;;;5087175;28;20056;-71
2023/09/12 09:05:01;;;;;;;24.40;11.68;;;25.30;99.90;;;;;;5088935;28;20043;-70
2023/09/12 09:07:28;;;;;;;29.15;11.85;;;25.60;99.90;;;;;;5087644;28;20074;-71
2023/09/12 09:09:56;;;;;;;24.73;11.50;;;25.80;99.90;;;;;;5088211;28;20037;-71
2023/09/12 09:12:21;;;;;;;25.67;12.57;;;26.00;99.90;;;;;;5088842;28;20028;-70
2023/09/12 09:14:47;;;;;;;19.20;11.27;;;26.10;99.90;;;;;;5087184;28;20272;-70
2023/09/12 09:17:15;;;;;;;21.45;11.15;;;26.20;99.90;;;;;;5088126;28;20028;-71
2023/09/12 09:19:42;;;;;;;22.55;11.05;;;26.30;99.90;;;;;;5088234;28;20115;-71
2023/09/12 09:22:08;;;;;;;23.45;11.93;;;26.30;99.90;;;;;;5088930;28;20032;-71
2023/09/12 09:24:33;;;;;;;19.13;11.15;;;26.50;99.90;;;;;;5087403;28;20387;-70
2023/09/12 09:27:00;;;;;;;22.23;10.80;;;26.60;99.90;;;;;;5070626;28;20028;-69
2023/09/12 09:29:31;;;;;;;21.17;11.57;;;26.70;99.90;;;;;;5108776;28;20051;-71
2023/09/12 09:31:58;;;;;;;19.42;11.05;;;26.80;99.90;;;;;;5109138;28;20344;-69
2023/09/12 09:34:24;;;;;;;17.25;10.65;;;26.80;99.90;;;;;;5108954;28;20027;-70
2023/09/12 09:36:52;;;;;;;18.25;9.98;;;26.80;99.90;;;;;;5083868;28;20140;-69
2023/09/12 09:39:19;;;;;;;28.80;10.77;;;26.80;99.90;;;;;;5088006;28;20036;-68
2023/09/12 09:41:49;;;;;;;21.17;10.48;;;26.80;99.90;;;;;;5087796;28;20020;-69
2023/09/12 09:44:15;;;;;;;17.83;10.80;;;26.80;99.90;;;;;;5088531;28;20028;-69
2023/09/12 09:46:44;;;;;;;16.55;10.80;;;27.00;99.90;;;;;;5086302;28;20036;-69
2023/09/12 09:49:18;;;;;;;15.38;9.82;;;27.10;99.90;;;;;;5087587;28;20148;-71
2023/09/12 09:51:44;;;;;;;17.50;10.80;;;27.20;99.90;;;;;;5086209;28;20032;-70
2023/09/12 09:54:11;;;;;;;25.27;10.80;;;27.20;99.90;;;;;;5088427;28;20066;-69
2023/09/12 09:56:47;;;;;;;25.67;10.65;;;27.20;99.90;;;;;;5086168;28;20020;-70
2023/09/12 09:59:18;;;;;;;24.88;10.95;;;27.30;99.90;;;;;;5087256;28;20059;-70
2023/09/12 10:01:45;;;;;;;;;;;27.40;99.90;;;;;;5086809;28;20035;-69
2023/09/12 10:04:10;;;;;;;19.73;10.85;;;27.60;99.90;;;;;;5086294;28;19957;-71
2023/09/12 10:06:38;;;;;;;21.38;11.00;;;27.60;99.90;;;;;;5087483;28;20033;-70
2023/09/12 10:09:07;;;;;;;18.38;10.27;;;27.70;99.90;;;;;;5088133;28;20039;-71
2023/09/12 10:11:34;;;;;;;17.27;10.70;;;27.70;99.90;;;;;;5084999;28;20058;-71
2023/09/12 10:14:04;;;;;;;16.98;10.35;;;27.70;99.90;;;;;;5064946;28;20032;-69
2023/09/12 10:16:32;;;;;;;15.38;9.70;;;27.80;99.90;;;;;;5088237;28;20052;-70
2023/09/12 10:19:23;;;;;;;16.38;11.15;;;27.90;99.90;;;;;;5091540;28;20079;-68
2023/09/12 10:21:58;;;;;;;18.40;10.65;;;27.90;99.90;;;;;;5090208;28;20035;-70
2023/09/12 10:24:24;;;;;;;21.73;10.85;;;27.90;99.90;;;;;;5091974;28;20034;-69
2023/09/12 10:26:51;;;;;;;17.75;11.20;;;28.10;99.90;;;;;;5090569;28;20034;-69
2023/09/12 10:29:17;;;;;;;23.42;10.95;;;28.10;99.90;;;;;;5091411;28;20038;-69
2023/09/12 10:31:43;;;;;;;20.08;11.13;;;28.20;99.90;;;;;;5090540;28;20020;-71
2023/09/12 10:34:12;;;;;;;16.60;10.50;;;28.40;99.90;;;;;;5089856;28;20048;-69
2023/09/12 10:36:40;;;;;;;18.40;10.10;;;28.20;99.90;;;;;;5089074;28;20420;-71
2023/09/12 10:39:07;;;;;;;13.80;10.43;;;28.20;99.90;;;;;;5090844;28;20036;-70
2023/09/12 10:41:37;;;;;;;18.00;11.48;;;28.30;99.90;;;;;;5090947;28;20388;-71
2023/09/12 10:44:09;;;;;;;;;;;28.30;99.90;;;;;;5073898;28;20032;-70
2023/09/12 10:46:37;;;;;;;16.25;10.82;;;28.30;99.90;;;;;;5089330;28;19912;-70
2023/09/12 10:49:06;;;;;;;17.80;11.02;;;28.40;99.90;;;;;;5087961;28;20056;-69
2023/09/12 10:51:32;;;;;;;18.27;10.82;;;28.40;99.90;;;;;;5090062;28;20031;-70
2023/09/12 10:53:57;;;;;;;21.40;11.00;;;28.60;99.90;;;;;;5090521;28;20036;-71
2023/09/12 10:56:29;;;;;;;16.67;10.63;;;28.80;99.90;;;;;;5091261;28;20380;-70
2023/09/12 10:59:06;;;;;;;17.45;10.18;;;28.80;99.90;;;;;;5089764;28;20024;-70
2023/09/12 11:01:36;;;;;;;20.15;10.82;;;29.00;99.30;;;;;;5090945;28;20039;-71
2023/09/12 11:04:27;;;;;;;19.25;11.18;;;29.10;99.90;;;;;;5090904;28;20032;-70
2023/09/12 11:06:53;;;;;;;18.20;11.35;;;29.10;99.90;;;;;;5089692;28;20024;-70
2023/09/12 11:09:23;;;;;;;17.27;10.55;;;29.30;99.90;;;;;;5089644;28;20395;-70
2023/09/12 11:11:56;;;;;;;15.30;10.75;;;29.40;99.50;;;;;;5095970;28;20028;-70
2023/09/12 11:14:24;;;;;;;14.02;10.52;;;29.60;99.90;;;;;;5089831;28;20033;-69
2023/09/12 11:17:07;;;;;;;17.98;10.10;;;29.90;99.30;;;;;;5087976;28;20116;-70
2023/09/12 11:19:53;;;;;;;17.17;10.05;;;29.80;96.60;;;;;;5090569;28;20682;-70
2023/09/12 11:22:27;;;;;;;13.15;9.68;;;29.80;96.40;;;;;;5089818;28;20085;-70
2023/09/12 11:24:55;;;;;;;13.48;9.98;;;29.70;96.50;;;;;;5088217;28;20586;-70
2023/09/12 11:27:23;;;;;;;14.18;9.98;;;29.90;97.70;;;;;;5077056;28;20151;-69
2023/09/12 11:29:49;;;;;;;19.02;9.38;;;29.90;95.70;;;;;;5088919;28;20032;-69
2023/09/12 11:32:36;;;;;;;13.88;9.75;;;29.90;95.40;;;;;;5090303;28;20073;-69
2023/09/12 11:35:07;;;;;;;14.43;9.48;;;30.10;95.90;;;;;;5090547;28;20456;-69
2023/09/12 11:37:33;;;;;;;18.38;10.98;;;30.50;95.30;;;;;;5089392;28;20118;-71
2023/09/12 11:39:59;;;;;;;16.58;10.15;;;30.50;95.90;;;;;;5089966;28;20024;-70
2023/09/12 11:42:27;;;;;;;17.95;10.00;;;30.50;95.80;;;;;;5089289;28;20025;-69
2023/09/12 11:44:53;;;;;;;17.08;9.75;;;30.50;95.80;;;;;;5087953;28;20028;-70
2023/09/12 11:47:20;;;;;;;14.52;9.48;;;30.50;93.10;;;;;;5088003;28;20047;-71
2023/09/12 11:49:46;;;;;;;17.05;8.88;;;30.50;94.60;;;;;;5088554;28;20028;-70
2023/09/12 11:52:14;;;;;;;14.05;10.07;;;30.40;91.70;;;;;;5089636;28;20442;-71
2023/09/12 11:54:45;;;;;;;17.15;10.13;;;30.30;93.30;;;;;;5089648;28;20111;-69
2023/09/12 11:57:13;;;;;;;18.00;9.95;;;30.30;93.40;;;;;;5088388;28;20024;-70
2023/09/12 11:59:40;;;;;;;14.98;9.50;;;30.10;93.90;;;;;;5088280;28;20379;-69
2023/09/12 12:02:07;;;;;;;17.67;9.43;;;30.10;93.50;;;;;;5089647;28;20034;-71
2023/09/12 12:04:34;;;;;;;12.63;9.18;;;30.30;94.10;;;;;;5071526;28;20663;-69
2023/09/12 12:07:01;;;;;;;17.42;9.73;;;30.50;94.80;;;;;;5089551;28;20495;-69
2023/09/12 12:09:27;;;;;;;12.52;8.93;;;30.50;93.60;;;;;;5090024;28;20032;-69
2023/09/12 12:11:52;;;;;;;17.15;8.60;;;30.70;95.60;;;;;;5088251;28;20032;-69
2023/09/12 12:14:19;;;;;;;16.23;8.75;;;30.90;91.20;;;;;;5089170;28;20043;-69
2023/09/12 12:16:46;;;;;;;14.32;8.38;;;30.80;90.50;;;;;;5089184;28;20085;-70
2023/09/12 12:19:12;;;;;;;16.02;9.18;;;31.00;89.40;;;;;;5089819;28;20032;-69
2023/09/12 12:21:40;;;;;;;14.75;8.50;;;31.10;90.00;;;;;;5089373;28;20106;-72
2023/09/12 12:24:08;;;;;;;19.20;9.70;;;30.90;90.30;;;;;;5089751;28;20067;-70
2023/09/12 12:26:33;;;;;;;15.65;9.05;;;31.00;91.20;;;;;;5087054;28;20040;-70
2023/09/12 12:29:04;;;;;;;20.70;9.48;;;31.10;91.70;;;;;;5088016;28;20028;-69
2023/09/12 12:31:30;;;;;;;10.40;8.10;;;31.00;90.70;;;;;;5089409;28;20428;-70